sensor_id;sensor_type;location;lat;lon;timestamp;P1;durP1;ratioP1;P2;durP2;ratioP2
52608;SDS011;38503;48.544;12.142;2022-12-18T00:00:47;60.53;;;26.97;;
52608;SDS011;38503;48.544;12.142;2022-12-18T00:03:14;52.07;;;24.57;;
52608;SDS011;38503;48.544;12.142;2022-12-18T00:05:51;62.43;;;26.77;;
52608;SDS011;38503;48.544;12.142;2022-12-18T00:08:19;56.00;;;27.47;;
52608;SDS011;38503;48.544;12.142;2022-12-18T00:10:45;57.73;;;26.73;;
52608;SDS011;38503;48.544;12.142;2022-12-18T00:13:13;58.90;;;27.37;;
52608;SDS011;38503;48.544;12.142;2022-12-18T00:15:40;60.53;;;27.27;;
52608;SDS011;38503;48.544;12.142;2022-12-18T00:18:07;61.50;;;28.37;;
52608;SDS011;38503;48.544;12.142;2022-12-18T00:20:37;63.37;;;27.77;;
52608;SDS011;38503;48.544;12.142;2022-12-18T00:23:06;58.10;;;27.97;;
52608;SDS011;38503;48.544;12.142;2022-12-18T00:25:34;52.90;;;25.93;;
52608;SDS011;38503;48.544;12.142;2022-12-18T00:28:02;61.53;;;29.33;;
52608;SDS011;38503;48.544;12.142;2022-12-18T00:30:29;60.63;;;29.33;;
52608;SDS011;38503;48.544;12.142;2022-12-18T00:32:57;60.00;;;28.60;;
52608;SDS011;38503;48.544;12.142;2022-12-18T00:35:24;52.47;;;23.93;;
52608;SDS011;38503;48.544;12.142;2022-12-18T00:37:51;61.43;;;28.43;;
52608;SDS011;38503;48.544;12.142;2022-12-18T00:40:18;52.17;;;25.53;;
52608;SDS011;38503;48.544;12.142;2022-12-18T00:42:45;52.80;;;24.80;;
52608;SDS011;38503;48.544;12.142;2022-12-18T00:45:30;62.67;;;27.50;;
52608;SDS011;38503;48.544;12.142;2022-12-18T00:47:57;55.67;;;26.67;;
52608;SDS011;38503;48.544;12.142;2022-12-18T00:50:24;56.10;;;26.97;;
52608;SDS011;38503;48.544;12.142;2022-12-18T00:52:52;54.53;;;26.77;;
52608;SDS011;38503;48.544;12.142;2022-12-18T00:55:18;54.17;;;25.23;;
52608;SDS011;38503;48.544;12.142;2022-12-18T00:57:45;49.63;;;25.00;;
52608;SDS011;38503;48.544;12.142;2022-12-18T01:00:13;53.57;;;22.77;;
52608;SDS011;38503;48.544;12.142;2022-12-18T01:02:42;52.00;;;25.13;;
52608;SDS011;38503;48.544;12.142;2022-12-18T01:05:10;55.27;;;26.33;;
52608;SDS011;38503;48.544;12.142;2022-12-18T01:07:39;56.70;;;26.07;;
52608;SDS011;38503;48.544;12.142;2022-12-18T01:10:07;55.63;;;27.37;;
52608;SDS011;38503;48.544;12.142;2022-12-18T01:12:36;54.97;;;25.83;;
52608;SDS011;38503;48.544;12.142;2022-12-18T01:15:03;55.67;;;27.37;;
52608;SDS011;38503;48.544;12.142;2022-12-18T01:17:31;55.10;;;26.30;;
52608;SDS011;38503;48.544;12.142;2022-12-18T01:19:59;44.77;;;22.30;;
52608;SDS011;38503;48.544;12.142;2022-12-18T01:22:26;58.47;;;27.00;;
52608;SDS011;38503;48.544;12.142;2022-12-18T01:24:53;57.07;;;26.10;;
52608;SDS011;38503;48.544;12.142;2022-12-18T01:27:19;58.00;;;26.17;;
52608;SDS011;38503;48.544;12.142;2022-12-18T01:29:46;57.37;;;26.30;;
52608;SDS011;38503;48.544;12.142;2022-12-18T01:32:13;53.50;;;25.93;;
52608;SDS011;38503;48.544;12.142;2022-12-18T01:34:40;58.70;;;29.07;;
52608;SDS011;38503;48.544;12.142;2022-12-18T01:37:07;61.33;;;28.60;;
52608;SDS011;38503;48.544;12.142;2022-12-18T01:39:34;60.10;;;27.77;;
52608;SDS011;38503;48.544;12.142;2022-12-18T01:42:11;64.40;;;28.33;;
52608;SDS011;38503;48.544;12.142;2022-12-18T01:49:59;60.23;;;29.50;;
52608;SDS011;38503;48.544;12.142;2022-12-18T01:52:32;61.83;;;29.40;;
52608;SDS011;38503;48.544;12.142;2022-12-18T01:55:00;56.97;;;28.80;;
52608;SDS011;38503;48.544;12.142;2022-12-18T01:57:29;62.33;;;28.20;;
52608;SDS011;38503;48.544;12.142;2022-12-18T01:59:59;54.27;;;27.57;;
52608;SDS011;38503;48.544;12.142;2022-12-18T02:02:29;65.27;;;27.90;;
52608;SDS011;38503;48.544;12.142;2022-12-18T02:04:57;56.80;;;25.83;;
52608;SDS011;38503;48.544;12.142;2022-12-18T02:12:49;55.73;;;27.83;;
52608;SDS011;38503;48.544;12.142;2022-12-18T02:15:27;58.50;;;28.47;;
52608;SDS011;38503;48.544;12.142;2022-12-18T02:18:04;42.77;;;20.90;;
52608;SDS011;38503;48.544;12.142;2022-12-18T02:20:34;60.33;;;26.33;;
52608;SDS011;38503;48.544;12.142;2022-12-18T02:23:20;49.70;;;23.33;;
52608;SDS011;38503;48.544;12.142;2022-12-18T02:28:53;54.07;;;25.63;;
52608;SDS011;38503;48.544;12.142;2022-12-18T02:31:26;57.90;;;25.97;;
52608;SDS011;38503;48.544;12.142;2022-12-18T02:33:56;58.03;;;26.93;;
52608;SDS011;38503;48.544;12.142;2022-12-18T02:36:27;62.30;;;29.20;;
52608;SDS011;38503;48.544;12.142;2022-12-18T02:38:55;59.17;;;26.17;;
52608;SDS011;38503;48.544;12.142;2022-12-18T02:41:23;50.07;;;25.80;;
52608;SDS011;38503;48.544;12.142;2022-12-18T02:43:58;54.83;;;26.37;;
52608;SDS011;38503;48.544;12.142;2022-12-18T02:46:33;54.30;;;26.53;;
52608;SDS011;38503;48.544;12.142;2022-12-18T02:52:17;39.30;;;18.83;;
52608;SDS011;38503;48.544;12.142;2022-12-18T02:54:59;46.03;;;22.27;;
52608;SDS011;38503;48.544;12.142;2022-12-18T02:57:50;50.57;;;22.63;;
52608;SDS011;38503;48.544;12.142;2022-12-18T03:00:21;52.70;;;23.80;;
52608;SDS011;38503;48.544;12.142;2022-12-18T03:02:54;53.50;;;23.57;;
52608;SDS011;38503;48.544;12.142;2022-12-18T03:05:43;48.30;;;23.70;;
52608;SDS011;38503;48.544;12.142;2022-12-18T03:08:18;48.93;;;23.23;;
52608;SDS011;38503;48.544;12.142;2022-12-18T03:11:11;50.80;;;23.97;;
52608;SDS011;38503;48.544;12.142;2022-12-18T03:16:26;48.93;;;22.70;;
52608;SDS011;38503;48.544;12.142;2022-12-18T03:19:31;52.87;;;24.23;;
52608;SDS011;38503;48.544;12.142;2022-12-18T03:21:54;53.50;;;24.37;;
52608;SDS011;38503;48.544;12.142;2022-12-18T03:24:24;52.70;;;23.70;;
52608;SDS011;38503;48.544;12.142;2022-12-18T03:26:54;57.20;;;26.40;;
52608;SDS011;38503;48.544;12.142;2022-12-18T03:29:27;47.20;;;22.00;;
52608;SDS011;38503;48.544;12.142;2022-12-18T03:32:06;50.47;;;23.70;;
52608;SDS011;38503;48.544;12.142;2022-12-18T03:34:37;54.37;;;26.13;;
52608;SDS011;38503;48.544;12.142;2022-12-18T03:37:06;47.63;;;23.97;;
52608;SDS011;38503;48.544;12.142;2022-12-18T03:39:33;44.07;;;21.43;;
52608;SDS011;38503;48.544;12.142;2022-12-18T03:42:24;48.60;;;23.13;;
52608;SDS011;38503;48.544;12.142;2022-12-18T03:44:59;53.87;;;23.57;;
52608;SDS011;38503;48.544;12.142;2022-12-18T03:47:31;53.23;;;25.13;;
52608;SDS011;38503;48.544;12.142;2022-12-18T03:51:15;46.67;;;23.50;;
52608;SDS011;38503;48.544;12.142;2022-12-18T03:55:51;48.93;;;24.90;;
52608;SDS011;38503;48.544;12.142;2022-12-18T03:58:20;50.63;;;24.30;;
52608;SDS011;38503;48.544;12.142;2022-12-18T04:00:51;51.63;;;24.33;;
52608;SDS011;38503;48.544;12.142;2022-12-18T04:03:20;49.43;;;24.83;;
52608;SDS011;38503;48.544;12.142;2022-12-18T04:05:52;52.67;;;24.37;;
52608;SDS011;38503;48.544;12.142;2022-12-18T04:08:21;48.83;;;24.73;;
52608;SDS011;38503;48.544;12.142;2022-12-18T04:10:49;48.23;;;23.50;;
52608;SDS011;38503;48.544;12.142;2022-12-18T04:13:23;50.00;;;23.73;;
52608;SDS011;38503;48.544;12.142;2022-12-18T04:15:53;52.37;;;24.40;;
52608;SDS011;38503;48.544;12.142;2022-12-18T04:18:20;48.57;;;24.10;;
52608;SDS011;38503;48.544;12.142;2022-12-18T04:20:47;47.40;;;23.13;;
52608;SDS011;38503;48.544;12.142;2022-12-18T04:23:14;45.60;;;22.23;;
52608;SDS011;38503;48.544;12.142;2022-12-18T04:25:41;42.07;;;20.60;;
52608;SDS011;38503;48.544;12.142;2022-12-18T04:28:07;38.63;;;19.87;;
52608;SDS011;38503;48.544;12.142;2022-12-18T04:30:34;33.13;;;18.40;;
52608;SDS011;38503;48.544;12.142;2022-12-18T04:33:01;41.53;;;21.63;;
52608;SDS011;38503;48.544;12.142;2022-12-18T04:35:28;48.03;;;22.63;;
52608;SDS011;38503;48.544;12.142;2022-12-18T04:37:55;46.40;;;21.70;;
52608;SDS011;38503;48.544;12.142;2022-12-18T04:40:22;43.73;;;21.17;;
52608;SDS011;38503;48.544;12.142;2022-12-18T04:42:48;48.10;;;23.23;;
52608;SDS011;38503;48.544;12.142;2022-12-18T04:45:15;45.90;;;23.60;;
52608;SDS011;38503;48.544;12.142;2022-12-18T04:47:42;50.83;;;24.37;;
52608;SDS011;38503;48.544;12.142;2022-12-18T04:50:09;48.10;;;23.33;;
52608;SDS011;38503;48.544;12.142;2022-12-18T04:52:36;47.87;;;25.10;;
52608;SDS011;38503;48.544;12.142;2022-12-18T04:55:03;49.13;;;24.43;;
52608;SDS011;38503;48.544;12.142;2022-12-18T04:57:30;52.20;;;23.87;;
52608;SDS011;38503;48.544;12.142;2022-12-18T04:59:57;45.07;;;21.17;;
52608;SDS011;38503;48.544;12.142;2022-12-18T05:02:24;45.70;;;23.70;;
52608;SDS011;38503;48.544;12.142;2022-12-18T05:04:51;43.43;;;20.07;;
52608;SDS011;38503;48.544;12.142;2022-12-18T05:07:18;49.73;;;24.20;;
52608;SDS011;38503;48.544;12.142;2022-12-18T05:09:45;38.43;;;17.03;;
52608;SDS011;38503;48.544;12.142;2022-12-18T05:12:11;47.90;;;22.57;;
52608;SDS011;38503;48.544;12.142;2022-12-18T05:14:38;45.23;;;23.37;;
52608;SDS011;38503;48.544;12.142;2022-12-18T05:17:05;48.50;;;24.67;;
52608;SDS011;38503;48.544;12.142;2022-12-18T05:19:32;49.17;;;23.63;;
52608;SDS011;38503;48.544;12.142;2022-12-18T05:21:59;50.73;;;25.10;;
52608;SDS011;38503;48.544;12.142;2022-12-18T05:24:27;51.30;;;24.70;;
52608;SDS011;38503;48.544;12.142;2022-12-18T05:26:54;44.87;;;23.00;;
52608;SDS011;38503;48.544;12.142;2022-12-18T05:29:21;38.67;;;19.40;;
52608;SDS011;38503;48.544;12.142;2022-12-18T05:31:48;44.97;;;23.83;;
52608;SDS011;38503;48.544;12.142;2022-12-18T05:34:15;43.80;;;22.07;;
52608;SDS011;38503;48.544;12.142;2022-12-18T05:36:42;41.27;;;22.10;;
52608;SDS011;38503;48.544;12.142;2022-12-18T05:39:09;48.37;;;21.90;;
52608;SDS011;38503;48.544;12.142;2022-12-18T05:41:36;46.40;;;23.03;;
52608;SDS011;38503;48.544;12.142;2022-12-18T05:44:03;50.30;;;24.03;;
52608;SDS011;38503;48.544;12.142;2022-12-18T05:46:31;39.13;;;19.93;;
52608;SDS011;38503;48.544;12.142;2022-12-18T05:49:01;35.47;;;19.57;;
52608;SDS011;38503;48.544;12.142;2022-12-18T05:51:28;36.50;;;20.50;;
52608;SDS011;38503;48.544;12.142;2022-12-18T05:53:55;43.90;;;22.00;;
52608;SDS011;38503;48.544;12.142;2022-12-18T05:56:22;46.80;;;20.87;;
52608;SDS011;38503;48.544;12.142;2022-12-18T05:58:52;37.80;;;19.77;;
52608;SDS011;38503;48.544;12.142;2022-12-18T06:01:21;44.93;;;22.80;;
52608;SDS011;38503;48.544;12.142;2022-12-18T06:03:50;43.70;;;21.67;;
52608;SDS011;38503;48.544;12.142;2022-12-18T06:06:19;45.73;;;23.23;;
52608;SDS011;38503;48.544;12.142;2022-12-18T06:08:48;38.07;;;19.73;;
52608;SDS011;38503;48.544;12.142;2022-12-18T06:11:17;29.97;;;16.80;;
52608;SDS011;38503;48.544;12.142;2022-12-18T06:13:45;41.83;;;22.23;;
52608;SDS011;38503;48.544;12.142;2022-12-18T06:16:12;41.67;;;20.87;;
52608;SDS011;38503;48.544;12.142;2022-12-18T06:18:43;46.20;;;22.47;;
52608;SDS011;38503;48.544;12.142;2022-12-18T06:21:09;48.60;;;25.27;;
52608;SDS011;38503;48.544;12.142;2022-12-18T06:23:36;44.07;;;23.87;;
52608;SDS011;38503;48.544;12.142;2022-12-18T06:26:13;38.90;;;19.07;;
52608;SDS011;38503;48.544;12.142;2022-12-18T06:28:40;44.73;;;22.73;;
52608;SDS011;38503;48.544;12.142;2022-12-18T06:31:08;47.20;;;22.27;;
52608;SDS011;38503;48.544;12.142;2022-12-18T06:33:36;44.03;;;21.70;;
52608;SDS011;38503;48.544;12.142;2022-12-18T06:36:05;47.27;;;22.67;;
52608;SDS011;38503;48.544;12.142;2022-12-18T06:38:35;42.33;;;20.90;;
52608;SDS011;38503;48.544;12.142;2022-12-18T06:41:12;51.63;;;24.13;;
52608;SDS011;38503;48.544;12.142;2022-12-18T06:43:41;48.23;;;22.57;;
52608;SDS011;38503;48.544;12.142;2022-12-18T06:46:09;44.20;;;21.50;;
52608;SDS011;38503;48.544;12.142;2022-12-18T06:48:36;33.50;;;15.53;;
52608;SDS011;38503;48.544;12.142;2022-12-18T06:51:04;43.73;;;20.93;;
52608;SDS011;38503;48.544;12.142;2022-12-18T06:53:31;45.03;;;23.17;;
52608;SDS011;38503;48.544;12.142;2022-12-18T06:56:05;41.80;;;21.00;;
52608;SDS011;38503;48.544;12.142;2022-12-18T06:58:36;43.70;;;22.83;;
52608;SDS011;38503;48.544;12.142;2022-12-18T07:01:04;43.93;;;23.40;;
52608;SDS011;38503;48.544;12.142;2022-12-18T07:03:34;45.47;;;22.50;;
52608;SDS011;38503;48.544;12.142;2022-12-18T07:06:01;42.40;;;21.37;;
52608;SDS011;38503;48.544;12.142;2022-12-18T07:08:28;47.83;;;22.30;;
52608;SDS011;38503;48.544;12.142;2022-12-18T07:10:56;46.07;;;23.17;;
52608;SDS011;38503;48.544;12.142;2022-12-18T07:13:23;49.17;;;24.50;;
52608;SDS011;38503;48.544;12.142;2022-12-18T07:15:50;52.80;;;24.77;;
52608;SDS011;38503;48.544;12.142;2022-12-18T07:18:20;49.77;;;25.87;;
52608;SDS011;38503;48.544;12.142;2022-12-18T07:20:46;48.97;;;25.07;;
52608;SDS011;38503;48.544;12.142;2022-12-18T07:23:14;34.20;;;17.70;;
52608;SDS011;38503;48.544;12.142;2022-12-18T07:25:41;52.67;;;25.37;;
52608;SDS011;38503;48.544;12.142;2022-12-18T07:28:07;47.43;;;23.97;;
52608;SDS011;38503;48.544;12.142;2022-12-18T07:30:42;42.43;;;21.63;;
52608;SDS011;38503;48.544;12.142;2022-12-18T07:33:09;46.53;;;23.47;;
52608;SDS011;38503;48.544;12.142;2022-12-18T07:35:35;43.87;;;23.93;;
52608;SDS011;38503;48.544;12.142;2022-12-18T07:38:02;43.50;;;22.63;;
52608;SDS011;38503;48.544;12.142;2022-12-18T07:40:29;47.67;;;23.43;;
52608;SDS011;38503;48.544;12.142;2022-12-18T07:42:56;48.60;;;24.37;;
52608;SDS011;38503;48.544;12.142;2022-12-18T07:45:23;47.33;;;24.30;;
52608;SDS011;38503;48.544;12.142;2022-12-18T07:47:50;44.63;;;23.70;;
52608;SDS011;38503;48.544;12.142;2022-12-18T07:50:16;49.30;;;23.23;;
52608;SDS011;38503;48.544;12.142;2022-12-18T07:52:43;45.57;;;23.97;;
52608;SDS011;38503;48.544;12.142;2022-12-18T07:55:10;43.67;;;20.60;;
52608;SDS011;38503;48.544;12.142;2022-12-18T07:57:37;42.07;;;21.07;;
52608;SDS011;38503;48.544;12.142;2022-12-18T08:00:17;40.70;;;21.47;;
52608;SDS011;38503;48.544;12.142;2022-12-18T08:02:44;42.27;;;21.33;;
52608;SDS011;38503;48.544;12.142;2022-12-18T08:05:11;40.40;;;20.80;;
52608;SDS011;38503;48.544;12.142;2022-12-18T08:07:38;46.80;;;22.83;;
52608;SDS011;38503;48.544;12.142;2022-12-18T08:10:05;32.63;;;16.80;;
52608;SDS011;38503;48.544;12.142;2022-12-18T08:12:32;44.13;;;22.67;;
52608;SDS011;38503;48.544;12.142;2022-12-18T08:15:00;37.07;;;17.97;;
52608;SDS011;38503;48.544;12.142;2022-12-18T08:17:27;47.80;;;23.63;;
52608;SDS011;38503;48.544;12.142;2022-12-18T08:19:53;49.93;;;23.40;;
52608;SDS011;38503;48.544;12.142;2022-12-18T08:22:20;43.90;;;22.47;;
52608;SDS011;38503;48.544;12.142;2022-12-18T08:24:47;45.57;;;23.43;;
52608;SDS011;38503;48.544;12.142;2022-12-18T08:27:14;47.80;;;24.80;;
52608;SDS011;38503;48.544;12.142;2022-12-18T08:29:57;49.60;;;24.63;;
52608;SDS011;38503;48.544;12.142;2022-12-18T08:32:25;48.40;;;24.03;;
52608;SDS011;38503;48.544;12.142;2022-12-18T08:34:53;47.47;;;22.73;;
52608;SDS011;38503;48.544;12.142;2022-12-18T08:37:20;41.20;;;22.27;;
52608;SDS011;38503;48.544;12.142;2022-12-18T08:39:47;47.77;;;24.37;;
52608;SDS011;38503;48.544;12.142;2022-12-18T08:42:13;49.27;;;25.47;;
52608;SDS011;38503;48.544;12.142;2022-12-18T08:44:59;37.87;;;21.23;;
52608;SDS011;38503;48.544;12.142;2022-12-18T08:47:26;42.13;;;21.77;;
52608;SDS011;38503;48.544;12.142;2022-12-18T08:49:52;45.20;;;23.20;;
52608;SDS011;38503;48.544;12.142;2022-12-18T08:52:19;46.07;;;23.13;;
52608;SDS011;38503;48.544;12.142;2022-12-18T08:54:46;47.10;;;24.20;;
52608;SDS011;38503;48.544;12.142;2022-12-18T08:57:13;47.67;;;25.80;;
52608;SDS011;38503;48.544;12.142;2022-12-18T08:59:40;37.33;;;19.60;;
52608;SDS011;38503;48.544;12.142;2022-12-18T09:02:08;41.67;;;21.47;;
52608;SDS011;38503;48.544;12.142;2022-12-18T09:04:37;47.13;;;22.13;;
52608;SDS011;38503;48.544;12.142;2022-12-18T09:07:06;44.83;;;22.87;;
52608;SDS011;38503;48.544;12.142;2022-12-18T09:09:33;44.07;;;22.57;;
52608;SDS011;38503;48.544;12.142;2022-12-18T09:11:59;42.73;;;21.70;;
52608;SDS011;38503;48.544;12.142;2022-12-18T09:14:26;42.77;;;21.87;;
52608;SDS011;38503;48.544;12.142;2022-12-18T09:16:53;46.33;;;20.93;;
52608;SDS011;38503;48.544;12.142;2022-12-18T09:19:21;35.00;;;16.50;;
52608;SDS011;38503;48.544;12.142;2022-12-18T09:21:50;41.17;;;23.27;;
52608;SDS011;38503;48.544;12.142;2022-12-18T09:24:17;44.43;;;22.77;;
52608;SDS011;38503;48.544;12.142;2022-12-18T09:26:44;47.17;;;23.37;;
52608;SDS011;38503;48.544;12.142;2022-12-18T09:29:13;41.47;;;21.10;;
52608;SDS011;38503;48.544;12.142;2022-12-18T09:31:41;43.50;;;20.83;;
52608;SDS011;38503;48.544;12.142;2022-12-18T09:34:08;39.40;;;22.43;;
52608;SDS011;38503;48.544;12.142;2022-12-18T09:36:35;30.33;;;17.63;;
52608;SDS011;38503;48.544;12.142;2022-12-18T09:39:02;38.87;;;18.00;;
52608;SDS011;38503;48.544;12.142;2022-12-18T09:44:22;39.63;;;21.20;;
52608;SDS011;38503;48.544;12.142;2022-12-18T09:47:27;37.60;;;19.60;;
52608;SDS011;38503;48.544;12.142;2022-12-18T09:50:01;35.30;;;20.47;;
52608;SDS011;38503;48.544;12.142;2022-12-18T09:52:35;41.50;;;21.33;;
52608;SDS011;38503;48.544;12.142;2022-12-18T09:57:53;39.47;;;18.03;;
52608;SDS011;38503;48.544;12.142;2022-12-18T10:00:24;35.20;;;19.83;;
52608;SDS011;38503;48.544;12.142;2022-12-18T10:02:52;37.00;;;19.80;;
52608;SDS011;38503;48.544;12.142;2022-12-18T10:05:32;33.17;;;18.40;;
52608;SDS011;38503;48.544;12.142;2022-12-18T10:08:17;32.63;;;18.93;;
52608;SDS011;38503;48.544;12.142;2022-12-18T10:13:58;32.80;;;18.73;;
52608;SDS011;38503;48.544;12.142;2022-12-18T10:19:49;36.63;;;18.77;;
52608;SDS011;38503;48.544;12.142;2022-12-18T10:25:06;27.73;;;15.97;;
52608;SDS011;38503;48.544;12.142;2022-12-18T10:27:44;29.40;;;18.37;;
52608;SDS011;38503;48.544;12.142;2022-12-18T10:30:16;34.20;;;19.20;;
52608;SDS011;38503;48.544;12.142;2022-12-18T10:32:45;35.50;;;20.20;;
52608;SDS011;38503;48.544;12.142;2022-12-18T10:35:19;37.47;;;19.87;;
52608;SDS011;38503;48.544;12.142;2022-12-18T10:43:20;36.37;;;19.73;;
52608;SDS011;38503;48.544;12.142;2022-12-18T10:48:26;32.13;;;18.47;;
52608;SDS011;38503;48.544;12.142;2022-12-18T10:50:53;34.73;;;18.63;;
52608;SDS011;38503;48.544;12.142;2022-12-18T10:53:39;35.43;;;18.90;;
52608;SDS011;38503;48.544;12.142;2022-12-18T10:56:08;26.53;;;15.50;;
52608;SDS011;38503;48.544;12.142;2022-12-18T10:58:35;34.20;;;19.60;;
52608;SDS011;38503;48.544;12.142;2022-12-18T11:01:12;31.97;;;18.03;;
52608;SDS011;38503;48.544;12.142;2022-12-18T11:03:44;31.83;;;17.63;;
52608;SDS011;38503;48.544;12.142;2022-12-18T11:06:28;30.87;;;18.33;;
52608;SDS011;38503;48.544;12.142;2022-12-18T11:11:52;32.70;;;18.47;;
52608;SDS011;38503;48.544;12.142;2022-12-18T11:14:24;27.90;;;16.10;;
52608;SDS011;38503;48.544;12.142;2022-12-18T11:16:57;26.83;;;15.23;;
52608;SDS011;38503;48.544;12.142;2022-12-18T11:19:46;31.33;;;17.33;;
52608;SDS011;38503;48.544;12.142;2022-12-18T11:22:36;30.00;;;16.90;;
52608;SDS011;38503;48.544;12.142;2022-12-18T11:25:16;30.83;;;17.77;;
52608;SDS011;38503;48.544;12.142;2022-12-18T11:28:00;29.33;;;16.63;;
52608;SDS011;38503;48.544;12.142;2022-12-18T11:30:30;32.37;;;17.47;;
52608;SDS011;38503;48.544;12.142;2022-12-18T11:33:09;30.90;;;17.60;;
52608;SDS011;38503;48.544;12.142;2022-12-18T11:35:50;32.97;;;18.20;;
52608;SDS011;38503;48.544;12.142;2022-12-18T11:38:30;31.63;;;18.60;;
52608;SDS011;38503;48.544;12.142;2022-12-18T11:43:35;31.70;;;18.80;;
52608;SDS011;38503;48.544;12.142;2022-12-18T11:46:10;33.43;;;18.50;;
52608;SDS011;38503;48.544;12.142;2022-12-18T11:48:56;31.13;;;18.03;;
52608;SDS011;38503;48.544;12.142;2022-12-18T11:51:37;30.77;;;18.37;;
52608;SDS011;38503;48.544;12.142;2022-12-18T11:54:14;32.00;;;19.40;;
52608;SDS011;38503;48.544;12.142;2022-12-18T12:05:00;31.30;;;17.97;;
52608;SDS011;38503;48.544;12.142;2022-12-18T12:21:36;31.47;;;17.20;;
52608;SDS011;38503;48.544;12.142;2022-12-18T12:40:22;34.10;;;18.40;;
52608;SDS011;38503;48.544;12.142;2022-12-18T12:43:16;32.80;;;19.30;;
52608;SDS011;38503;48.544;12.142;2022-12-18T12:53:56;32.57;;;17.43;;
52608;SDS011;38503;48.544;12.142;2022-12-18T12:56:27;32.27;;;19.20;;
52608;SDS011;38503;48.544;12.142;2022-12-18T13:02:22;32.67;;;19.37;;
52608;SDS011;38503;48.544;12.142;2022-12-18T13:07:59;33.40;;;18.17;;
52608;SDS011;38503;48.544;12.142;2022-12-18T13:10:36;36.23;;;20.00;;
52608;SDS011;38503;48.544;12.142;2022-12-18T13:18:29;34.60;;;18.77;;
52608;SDS011;38503;48.544;12.142;2022-12-18T13:23:30;28.57;;;16.13;;
52608;SDS011;38503;48.544;12.142;2022-12-18T13:30:59;28.40;;;16.63;;
52608;SDS011;38503;48.544;12.142;2022-12-18T13:36:33;34.70;;;17.70;;
52608;SDS011;38503;48.544;12.142;2022-12-18T13:39:46;33.13;;;18.53;;
52608;SDS011;38503;48.544;12.142;2022-12-18T13:48:15;36.77;;;20.13;;
52608;SDS011;38503;48.544;12.142;2022-12-18T13:50:56;32.50;;;18.90;;
52608;SDS011;38503;48.544;12.142;2022-12-18T13:53:36;32.97;;;18.73;;
52608;SDS011;38503;48.544;12.142;2022-12-18T13:56:05;33.97;;;19.30;;
52608;SDS011;38503;48.544;12.142;2022-12-18T13:58:32;31.43;;;18.53;;
52608;SDS011;38503;48.544;12.142;2022-12-18T14:00:59;30.90;;;18.00;;
52608;SDS011;38503;48.544;12.142;2022-12-18T14:03:28;35.23;;;18.77;;
52608;SDS011;38503;48.544;12.142;2022-12-18T14:06:01;36.83;;;22.40;;
52608;SDS011;38503;48.544;12.142;2022-12-18T14:08:38;32.83;;;19.33;;
52608;SDS011;38503;48.544;12.142;2022-12-18T14:11:07;33.50;;;18.40;;
52608;SDS011;38503;48.544;12.142;2022-12-18T14:13:47;35.20;;;19.40;;
52608;SDS011;38503;48.544;12.142;2022-12-18T14:16:16;33.00;;;18.00;;
52608;SDS011;38503;48.544;12.142;2022-12-18T14:18:45;37.27;;;19.37;;
52608;SDS011;38503;48.544;12.142;2022-12-18T14:21:20;35.00;;;19.43;;
52608;SDS011;38503;48.544;12.142;2022-12-18T14:26:32;30.80;;;17.87;;
52608;SDS011;38503;48.544;12.142;2022-12-18T14:29:22;40.50;;;20.43;;
52608;SDS011;38503;48.544;12.142;2022-12-18T14:32:04;34.60;;;18.83;;
52608;SDS011;38503;48.544;12.142;2022-12-18T14:34:45;36.13;;;19.43;;
52608;SDS011;38503;48.544;12.142;2022-12-18T14:37:14;37.93;;;21.63;;
52608;SDS011;38503;48.544;12.142;2022-12-18T14:39:56;37.47;;;20.60;;
52608;SDS011;38503;48.544;12.142;2022-12-18T14:42:36;28.70;;;15.87;;
52608;SDS011;38503;48.544;12.142;2022-12-18T14:48:13;40.93;;;22.27;;
52608;SDS011;38503;48.544;12.142;2022-12-18T14:50:55;34.77;;;18.63;;
52608;SDS011;38503;48.544;12.142;2022-12-18T14:53:46;36.57;;;20.67;;
52608;SDS011;38503;48.544;12.142;2022-12-18T14:56:24;38.10;;;19.57;;
52608;SDS011;38503;48.544;12.142;2022-12-18T14:58:54;45.60;;;23.07;;
52608;SDS011;38503;48.544;12.142;2022-12-18T15:01:29;34.07;;;19.57;;
52608;SDS011;38503;48.544;12.142;2022-12-18T15:04:05;40.73;;;21.47;;
52608;SDS011;38503;48.544;12.142;2022-12-18T15:09:40;39.40;;;21.93;;
52608;SDS011;38503;48.544;12.142;2022-12-18T15:12:24;36.30;;;20.90;;
52608;SDS011;38503;48.544;12.142;2022-12-18T15:15:03;37.63;;;21.63;;
52608;SDS011;38503;48.544;12.142;2022-12-18T15:17:31;38.10;;;22.27;;
52608;SDS011;38503;48.544;12.142;2022-12-18T15:19:58;40.63;;;22.53;;
52608;SDS011;38503;48.544;12.142;2022-12-18T15:22:29;35.83;;;22.20;;
52608;SDS011;38503;48.544;12.142;2022-12-18T15:24:59;41.03;;;23.83;;
52608;SDS011;38503;48.544;12.142;2022-12-18T15:27:33;41.03;;;23.57;;
52608;SDS011;38503;48.544;12.142;2022-12-18T15:32:36;47.60;;;24.73;;
52608;SDS011;38503;48.544;12.142;2022-12-18T15:35:22;36.97;;;22.00;;
52608;SDS011;38503;48.544;12.142;2022-12-18T15:37:50;45.27;;;23.90;;
52608;SDS011;38503;48.544;12.142;2022-12-18T15:40:19;44.33;;;24.57;;
52608;SDS011;38503;48.544;12.142;2022-12-18T15:42:47;41.53;;;23.83;;
52608;SDS011;38503;48.544;12.142;2022-12-18T15:45:38;43.97;;;23.70;;
52608;SDS011;38503;48.544;12.142;2022-12-18T15:48:19;41.47;;;22.97;;
52608;SDS011;38503;48.544;12.142;2022-12-18T15:50:48;41.47;;;21.33;;
52608;SDS011;38503;48.544;12.142;2022-12-18T15:53:17;47.43;;;24.50;;
52608;SDS011;38503;48.544;12.142;2022-12-18T15:55:44;47.77;;;24.53;;
52608;SDS011;38503;48.544;12.142;2022-12-18T15:58:30;47.23;;;24.30;;
52608;SDS011;38503;48.544;12.142;2022-12-18T16:00:57;49.53;;;25.20;;
52608;SDS011;38503;48.544;12.142;2022-12-18T16:03:25;46.30;;;25.40;;
52608;SDS011;38503;48.544;12.142;2022-12-18T16:05:52;55.92;;;34.55;;
52608;SDS011;38503;48.544;12.142;2022-12-18T16:08:19;52.97;;;28.13;;
52608;SDS011;38503;48.544;12.142;2022-12-18T16:10:46;45.60;;;26.53;;
52608;SDS011;38503;48.544;12.142;2022-12-18T16:13:14;48.33;;;26.70;;
52608;SDS011;38503;48.544;12.142;2022-12-18T16:15:44;48.83;;;26.83;;
52608;SDS011;38503;48.544;12.142;2022-12-18T16:18:12;51.20;;;27.93;;
52608;SDS011;38503;48.544;12.142;2022-12-18T16:20:39;52.70;;;28.53;;
52608;SDS011;38503;48.544;12.142;2022-12-18T16:23:06;55.53;;;29.73;;
52608;SDS011;38503;48.544;12.142;2022-12-18T16:25:33;53.67;;;29.03;;
52608;SDS011;38503;48.544;12.142;2022-12-18T16:28:00;50.10;;;27.77;;
52608;SDS011;38503;48.544;12.142;2022-12-18T16:30:28;55.37;;;29.70;;
52608;SDS011;38503;48.544;12.142;2022-12-18T16:33:03;59.57;;;30.20;;
52608;SDS011;38503;48.544;12.142;2022-12-18T16:35:32;53.97;;;30.57;;
52608;SDS011;38503;48.544;12.142;2022-12-18T16:37:59;51.60;;;30.70;;
52608;SDS011;38503;48.544;12.142;2022-12-18T16:40:26;55.60;;;29.33;;
52608;SDS011;38503;48.544;12.142;2022-12-18T16:42:53;54.67;;;29.97;;
52608;SDS011;38503;48.544;12.142;2022-12-18T16:45:20;56.50;;;29.83;;
52608;SDS011;38503;48.544;12.142;2022-12-18T16:47:46;50.40;;;28.70;;